sensor_id;sensor_type;location;lat;lon;timestamp;P1;durP1;ratioP1;P2;durP2;ratioP2
5549;SDS011;2798;42.716;23.256;2023-03-01T00:00:07;2.40;;;2.20;;
5549;SDS011;2798;42.716;23.256;2023-03-01T00:02:32;2.20;;;2.00;;
5549;SDS011;2798;42.716;23.256;2023-03-01T00:04:58;3.33;;;2.33;;
5549;SDS011;2798;42.716;23.256;2023-03-01T00:07:23;2.50;;;2.23;;
5549;SDS011;2798;42.716;23.256;2023-03-01T00:09:48;2.97;;;2.40;;
5549;SDS011;2798;42.716;23.256;2023-03-01T00:12:14;3.17;;;2.87;;
5549;SDS011;2798;42.716;23.256;2023-03-01T00:14:39;3.27;;;2.70;;
5549;SDS011;2798;42.716;23.256;2023-03-01T00:17:05;3.80;;;3.00;;
5549;SDS011;2798;42.716;23.256;2023-03-01T00:19:30;2.50;;;2.30;;
5549;SDS011;2798;42.716;23.256;2023-03-01T00:21:57;2.97;;;2.63;;
5549;SDS011;2798;42.716;23.256;2023-03-01T00:24:22;3.20;;;2.63;;
5549;SDS011;2798;42.716;23.256;2023-03-01T00:26:47;2.80;;;2.50;;
5549;SDS011;2798;42.716;23.256;2023-03-01T00:29:13;2.63;;;2.43;;
5549;SDS011;2798;42.716;23.256;2023-03-01T00:31:38;2.57;;;2.37;;
5549;SDS011;2798;42.716;23.256;2023-03-01T00:34:04;4.00;;;2.73;;
5549;SDS011;2798;42.716;23.256;2023-03-01T00:36:34;3.20;;;2.50;;
5549;SDS011;2798;42.716;23.256;2023-03-01T00:38:59;2.90;;;2.63;;
5549;SDS011;2798;42.716;23.256;2023-03-01T00:41:24;2.13;;;2.03;;
5549;SDS011;2798;42.716;23.256;2023-03-01T00:43:51;2.40;;;2.20;;
5549;SDS011;2798;42.716;23.256;2023-03-01T00:46:18;2.23;;;2.10;;
5549;SDS011;2798;42.716;23.256;2023-03-01T00:48:44;2.17;;;2.00;;
5549;SDS011;2798;42.716;23.256;2023-03-01T00:51:13;2.40;;;2.20;;
5549;SDS011;2798;42.716;23.256;2023-03-01T00:53:39;2.20;;;2.00;;
5549;SDS011;2798;42.716;23.256;2023-03-01T00:56:05;2.40;;;2.07;;
5549;SDS011;2798;42.716;23.256;2023-03-01T00:58:31;1.97;;;1.83;;
5549;SDS011;2798;42.716;23.256;2023-03-01T01:00:56;2.07;;;1.97;;
5549;SDS011;2798;42.716;23.256;2023-03-01T01:03:21;2.37;;;2.17;;
5549;SDS011;2798;42.716;23.256;2023-03-01T01:05:47;2.40;;;2.20;;
5549;SDS011;2798;42.716;23.256;2023-03-01T01:08:12;1.80;;;1.70;;
5549;SDS011;2798;42.716;23.256;2023-03-01T01:10:37;1.70;;;1.60;;
5549;SDS011;2798;42.716;23.256;2023-03-01T01:13:03;1.53;;;1.43;;
5549;SDS011;2798;42.716;23.256;2023-03-01T01:15:28;2.57;;;2.00;;
5549;SDS011;2798;42.716;23.256;2023-03-01T01:17:54;2.10;;;1.90;;
5549;SDS011;2798;42.716;23.256;2023-03-01T01:20:19;2.10;;;1.90;;
5549;SDS011;2798;42.716;23.256;2023-03-01T01:22:45;1.63;;;1.53;;
5549;SDS011;2798;42.716;23.256;2023-03-01T01:25:10;2.30;;;1.70;;
5549;SDS011;2798;42.716;23.256;2023-03-01T01:27:36;1.80;;;1.70;;
5549;SDS011;2798;42.716;23.256;2023-03-01T01:30:01;1.60;;;1.50;;
5549;SDS011;2798;42.716;23.256;2023-03-01T01:32:27;1.83;;;1.73;;
5549;SDS011;2798;42.716;23.256;2023-03-01T01:34:52;1.87;;;1.73;;
5549;SDS011;2798;42.716;23.256;2023-03-01T01:37:17;1.87;;;1.77;;
5549;SDS011;2798;42.716;23.256;2023-03-01T01:39:42;1.60;;;1.50;;
5549;SDS011;2798;42.716;23.256;2023-03-01T01:42:14;1.60;;;1.50;;
5549;SDS011;2798;42.716;23.256;2023-03-01T01:44:40;1.70;;;1.60;;
5549;SDS011;2798;42.716;23.256;2023-03-01T01:47:06;1.50;;;1.40;;
5549;SDS011;2798;42.716;23.256;2023-03-01T01:49:51;1.70;;;1.60;;
5549;SDS011;2798;42.716;23.256;2023-03-01T01:52:20;1.90;;;1.80;;
5549;SDS011;2798;42.716;23.256;2023-03-01T01:57:15;2.33;;;2.13;;
5549;SDS011;2798;42.716;23.256;2023-03-01T01:59:42;1.67;;;1.57;;
5549;SDS011;2798;42.716;23.256;2023-03-01T02:02:08;1.70;;;1.60;;
5549;SDS011;2798;42.716;23.256;2023-03-01T02:04:34;2.10;;;1.97;;
5549;SDS011;2798;42.716;23.256;2023-03-01T02:07:07;2.90;;;1.67;;
5549;SDS011;2798;42.716;23.256;2023-03-01T02:09:34;2.93;;;1.57;;
5549;SDS011;2798;42.716;23.256;2023-03-01T02:12:00;1.80;;;1.70;;
5549;SDS011;2798;42.716;23.256;2023-03-01T02:14:26;2.00;;;1.90;;
5549;SDS011;2798;42.716;23.256;2023-03-01T02:16:51;1.53;;;1.43;;
5549;SDS011;2798;42.716;23.256;2023-03-01T02:19:25;2.97;;;1.50;;
5549;SDS011;2798;42.716;23.256;2023-03-01T02:21:56;2.23;;;1.70;;
5549;SDS011;2798;42.716;23.256;2023-03-01T02:26:54;1.90;;;1.80;;
5549;SDS011;2798;42.716;23.256;2023-03-01T02:29:21;1.50;;;1.40;;
5549;SDS011;2798;42.716;23.256;2023-03-01T02:31:46;1.70;;;1.60;;
5549;SDS011;2798;42.716;23.256;2023-03-01T02:34:13;1.57;;;1.47;;
5549;SDS011;2798;42.716;23.256;2023-03-01T02:36:40;1.67;;;1.57;;
5549;SDS011;2798;42.716;23.256;2023-03-01T02:39:07;1.47;;;1.37;;
5549;SDS011;2798;42.716;23.256;2023-03-01T02:41:39;1.67;;;1.57;;
5549;SDS011;2798;42.716;23.256;2023-03-01T02:44:06;1.60;;;1.50;;
5549;SDS011;2798;42.716;23.256;2023-03-01T02:46:31;1.53;;;1.43;;
5549;SDS011;2798;42.716;23.256;2023-03-01T02:48:57;2.20;;;1.77;;
5549;SDS011;2798;42.716;23.256;2023-03-01T02:56:28;1.80;;;1.70;;
5549;SDS011;2798;42.716;23.256;2023-03-01T02:58:54;2.00;;;1.77;;
5549;SDS011;2798;42.716;23.256;2023-03-01T03:01:19;1.73;;;1.47;;
5549;SDS011;2798;42.716;23.256;2023-03-01T03:03:45;1.73;;;1.63;;
5549;SDS011;2798;42.716;23.256;2023-03-01T03:06:11;1.90;;;1.80;;
5549;SDS011;2798;42.716;23.256;2023-03-01T03:08:36;1.60;;;1.50;;
5549;SDS011;2798;42.716;23.256;2023-03-01T03:11:01;2.30;;;2.10;;
5549;SDS011;2798;42.716;23.256;2023-03-01T03:13:27;1.60;;;1.50;;
5549;SDS011;2798;42.716;23.256;2023-03-01T03:15:54;1.80;;;1.70;;
5549;SDS011;2798;42.716;23.256;2023-03-01T03:18:19;1.83;;;1.73;;
5549;SDS011;2798;42.716;23.256;2023-03-01T03:20:44;1.97;;;1.80;;
5549;SDS011;2798;42.716;23.256;2023-03-01T03:23:10;1.77;;;1.63;;
5549;SDS011;2798;42.716;23.256;2023-03-01T03:25:36;1.60;;;1.50;;
5549;SDS011;2798;42.716;23.256;2023-03-01T03:28:04;1.80;;;1.70;;
5549;SDS011;2798;42.716;23.256;2023-03-01T03:30:34;2.17;;;1.97;;
5549;SDS011;2798;42.716;23.256;2023-03-01T03:33:00;2.10;;;2.00;;
5549;SDS011;2798;42.716;23.256;2023-03-01T03:37:51;1.60;;;1.50;;
5549;SDS011;2798;42.716;23.256;2023-03-01T03:40:38;2.33;;;2.20;;
5549;SDS011;2798;42.716;23.256;2023-03-01T03:43:05;1.60;;;1.50;;
5549;SDS011;2798;42.716;23.256;2023-03-01T03:45:31;2.40;;;1.43;;
5549;SDS011;2798;42.716;23.256;2023-03-01T03:47:58;1.80;;;1.70;;
5549;SDS011;2798;42.716;23.256;2023-03-01T03:50:23;1.70;;;1.60;;
5549;SDS011;2798;42.716;23.256;2023-03-01T03:52:48;1.83;;;1.73;;
5549;SDS011;2798;42.716;23.256;2023-03-01T03:55:14;1.80;;;1.70;;
5549;SDS011;2798;42.716;23.256;2023-03-01T03:57:44;1.80;;;1.70;;
5549;SDS011;2798;42.716;23.256;2023-03-01T04:00:10;2.30;;;2.10;;
5549;SDS011;2798;42.716;23.256;2023-03-01T04:02:38;2.03;;;1.83;;
5549;SDS011;2798;42.716;23.256;2023-03-01T04:05:03;3.10;;;2.77;;
5549;SDS011;2798;42.716;23.256;2023-03-01T04:07:29;4.77;;;3.80;;
5549;SDS011;2798;42.716;23.256;2023-03-01T04:09:54;3.80;;;3.37;;
5549;SDS011;2798;42.716;23.256;2023-03-01T04:12:19;4.43;;;3.07;;
5549;SDS011;2798;42.716;23.256;2023-03-01T04:14:47;4.23;;;3.40;;
5549;SDS011;2798;42.716;23.256;2023-03-01T04:17:13;4.00;;;2.73;;
5549;SDS011;2798;42.716;23.256;2023-03-01T04:19:38;3.90;;;2.47;;
5549;SDS011;2798;42.716;23.256;2023-03-01T04:22:03;3.83;;;3.10;;
5549;SDS011;2798;42.716;23.256;2023-03-01T04:24:34;3.80;;;2.20;;
5549;SDS011;2798;42.716;23.256;2023-03-01T04:26:59;3.10;;;2.80;;
5549;SDS011;2798;42.716;23.256;2023-03-01T04:29:24;4.97;;;3.33;;
5549;SDS011;2798;42.716;23.256;2023-03-01T04:31:50;4.70;;;3.83;;
5549;SDS011;2798;42.716;23.256;2023-03-01T04:34:15;6.27;;;3.70;;
5549;SDS011;2798;42.716;23.256;2023-03-01T04:36:40;3.90;;;3.50;;
5549;SDS011;2798;42.716;23.256;2023-03-01T04:39:05;4.43;;;3.87;;
5549;SDS011;2798;42.716;23.256;2023-03-01T04:41:37;5.40;;;4.23;;
5549;SDS011;2798;42.716;23.256;2023-03-01T04:44:03;6.23;;;4.43;;
5549;SDS011;2798;42.716;23.256;2023-03-01T04:46:29;4.33;;;3.50;;
5549;SDS011;2798;42.716;23.256;2023-03-01T04:48:54;5.40;;;3.87;;
5549;SDS011;2798;42.716;23.256;2023-03-01T04:51:20;6.87;;;4.40;;
5549;SDS011;2798;42.716;23.256;2023-03-01T04:53:45;6.50;;;3.57;;
5549;SDS011;2798;42.716;23.256;2023-03-01T04:56:11;4.30;;;3.43;;
5549;SDS011;2798;42.716;23.256;2023-03-01T04:58:38;4.13;;;3.37;;
5549;SDS011;2798;42.716;23.256;2023-03-01T05:01:17;3.67;;;3.33;;
5549;SDS011;2798;42.716;23.256;2023-03-01T05:03:46;3.73;;;3.00;;
5549;SDS011;2798;42.716;23.256;2023-03-01T05:06:12;3.03;;;2.60;;
5549;SDS011;2798;42.716;23.256;2023-03-01T05:08:38;5.10;;;2.33;;
5549;SDS011;2798;42.716;23.256;2023-03-01T05:11:03;2.60;;;2.40;;
5549;SDS011;2798;42.716;23.256;2023-03-01T05:13:29;2.20;;;2.00;;
5549;SDS011;2798;42.716;23.256;2023-03-01T05:15:55;3.07;;;1.93;;
5549;SDS011;2798;42.716;23.256;2023-03-01T05:18:20;2.40;;;2.20;;
5549;SDS011;2798;42.716;23.256;2023-03-01T05:20:46;5.80;;;2.30;;
5549;SDS011;2798;42.716;23.256;2023-03-01T05:23:12;1.77;;;1.67;;
5549;SDS011;2798;42.716;23.256;2023-03-01T05:25:37;2.13;;;2.00;;
5549;SDS011;2798;42.716;23.256;2023-03-01T05:28:05;1.83;;;1.67;;
5549;SDS011;2798;42.716;23.256;2023-03-01T05:30:34;2.20;;;2.10;;
5549;SDS011;2798;42.716;23.256;2023-03-01T05:32:59;2.33;;;2.00;;
5549;SDS011;2798;42.716;23.256;2023-03-01T05:35:25;2.30;;;1.90;;
5549;SDS011;2798;42.716;23.256;2023-03-01T05:37:51;2.90;;;2.37;;
5549;SDS011;2798;42.716;23.256;2023-03-01T05:40:20;2.33;;;2.13;;
5549;SDS011;2798;42.716;23.256;2023-03-01T05:42:46;3.80;;;2.33;;
5549;SDS011;2798;42.716;23.256;2023-03-01T05:45:12;3.00;;;2.70;;
5549;SDS011;2798;42.716;23.256;2023-03-01T05:47:39;5.43;;;2.60;;
5549;SDS011;2798;42.716;23.256;2023-03-01T05:50:08;2.40;;;2.20;;
5549;SDS011;2798;42.716;23.256;2023-03-01T05:52:34;2.63;;;2.43;;
5549;SDS011;2798;42.716;23.256;2023-03-01T05:54:59;3.90;;;2.50;;
5549;SDS011;2798;42.716;23.256;2023-03-01T05:57:24;2.60;;;2.40;;
5549;SDS011;2798;42.716;23.256;2023-03-01T05:59:50;2.73;;;2.23;;
5549;SDS011;2798;42.716;23.256;2023-03-01T06:02:16;2.63;;;2.33;;
5549;SDS011;2798;42.716;23.256;2023-03-01T06:04:41;4.13;;;2.70;;
5549;SDS011;2798;42.716;23.256;2023-03-01T06:07:06;4.47;;;3.10;;
5549;SDS011;2798;42.716;23.256;2023-03-01T06:09:31;4.57;;;2.70;;
5549;SDS011;2798;42.716;23.256;2023-03-01T06:11:56;2.80;;;2.50;;
5549;SDS011;2798;42.716;23.256;2023-03-01T06:14:22;3.90;;;2.83;;
5549;SDS011;2798;42.716;23.256;2023-03-01T06:16:47;3.80;;;2.90;;
5549;SDS011;2798;42.716;23.256;2023-03-01T06:19:12;4.30;;;3.23;;
5549;SDS011;2798;42.716;23.256;2023-03-01T06:21:37;3.97;;;3.37;;
5549;SDS011;2798;42.716;23.256;2023-03-01T06:24:03;3.73;;;2.67;;
5549;SDS011;2798;42.716;23.256;2023-03-01T06:26:28;4.63;;;3.10;;
5549;SDS011;2798;42.716;23.256;2023-03-01T06:28:53;4.03;;;2.80;;
5549;SDS011;2798;42.716;23.256;2023-03-01T06:31:19;3.57;;;3.00;;
5549;SDS011;2798;42.716;23.256;2023-03-01T06:33:44;3.20;;;2.90;;
5549;SDS011;2798;42.716;23.256;2023-03-01T06:36:09;3.23;;;2.93;;
5549;SDS011;2798;42.716;23.256;2023-03-01T06:38:35;5.70;;;2.97;;
5549;SDS011;2798;42.716;23.256;2023-03-01T06:41:00;3.17;;;2.87;;
5549;SDS011;2798;42.716;23.256;2023-03-01T06:43:26;4.83;;;3.00;;
5549;SDS011;2798;42.716;23.256;2023-03-01T06:45:51;4.23;;;2.77;;
5549;SDS011;2798;42.716;23.256;2023-03-01T06:48:16;3.03;;;2.73;;
5549;SDS011;2798;42.716;23.256;2023-03-01T06:50:42;5.50;;;2.87;;
5549;SDS011;2798;42.716;23.256;2023-03-01T06:53:07;3.00;;;2.70;;
5549;SDS011;2798;42.716;23.256;2023-03-01T06:55:32;4.73;;;2.47;;
5549;SDS011;2798;42.716;23.256;2023-03-01T06:57:58;3.90;;;2.70;;
5549;SDS011;2798;42.716;23.256;2023-03-01T07:00:23;3.30;;;2.77;;
5549;SDS011;2798;42.716;23.256;2023-03-01T07:02:49;4.27;;;3.00;;
5549;SDS011;2798;42.716;23.256;2023-03-01T07:05:14;4.57;;;3.13;;
5549;SDS011;2798;42.716;23.256;2023-03-01T07:07:39;3.53;;;2.63;;
5549;SDS011;2798;42.716;23.256;2023-03-01T07:10:05;3.40;;;2.87;;
5549;SDS011;2798;42.716;23.256;2023-03-01T07:12:31;2.53;;;2.27;;
5549;SDS011;2798;42.716;23.256;2023-03-01T07:14:56;5.87;;;2.57;;
5549;SDS011;2798;42.716;23.256;2023-03-01T07:17:21;2.30;;;2.00;;
5549;SDS011;2798;42.716;23.256;2023-03-01T07:19:46;3.63;;;2.30;;
5549;SDS011;2798;42.716;23.256;2023-03-01T07:22:12;4.50;;;2.40;;
5549;SDS011;2798;42.716;23.256;2023-03-01T07:24:37;3.60;;;2.03;;
5549;SDS011;2798;42.716;23.256;2023-03-01T07:27:02;2.33;;;2.20;;
5549;SDS011;2798;42.716;23.256;2023-03-01T07:29:28;6.70;;;2.57;;
5549;SDS011;2798;42.716;23.256;2023-03-01T07:31:53;5.43;;;2.37;;
5549;SDS011;2798;42.716;23.256;2023-03-01T07:34:19;2.80;;;2.30;;
5549;SDS011;2798;42.716;23.256;2023-03-01T07:36:44;3.03;;;2.30;;
5549;SDS011;2798;42.716;23.256;2023-03-01T07:39:10;2.47;;;2.23;;
5549;SDS011;2798;42.716;23.256;2023-03-01T07:41:35;2.90;;;2.40;;
5549;SDS011;2798;42.716;23.256;2023-03-01T07:44:01;4.20;;;2.33;;
5549;SDS011;2798;42.716;23.256;2023-03-01T07:46:26;3.47;;;2.00;;
5549;SDS011;2798;42.716;23.256;2023-03-01T07:48:51;2.40;;;2.20;;
5549;SDS011;2798;42.716;23.256;2023-03-01T07:51:16;3.23;;;2.10;;
5549;SDS011;2798;42.716;23.256;2023-03-01T07:53:42;2.50;;;2.23;;
5549;SDS011;2798;42.716;23.256;2023-03-01T07:56:08;2.60;;;2.00;;
5549;SDS011;2798;42.716;23.256;2023-03-01T07:58:34;5.30;;;2.20;;
5549;SDS011;2798;42.716;23.256;2023-03-01T08:01:02;2.40;;;1.90;;
5549;SDS011;2798;42.716;23.256;2023-03-01T08:03:28;2.60;;;2.30;;
5549;SDS011;2798;42.716;23.256;2023-03-01T08:05:53;4.37;;;2.40;;
5549;SDS011;2798;42.716;23.256;2023-03-01T08:08:19;2.13;;;1.93;;
5549;SDS011;2798;42.716;23.256;2023-03-01T08:10:44;2.80;;;2.13;;
5549;SDS011;2798;42.716;23.256;2023-03-01T08:13:09;3.20;;;2.90;;
5549;SDS011;2798;42.716;23.256;2023-03-01T08:15:34;2.73;;;2.27;;
5549;SDS011;2798;42.716;23.256;2023-03-01T08:18:00;2.50;;;2.17;;
5549;SDS011;2798;42.716;23.256;2023-03-01T08:20:25;4.90;;;2.40;;
5549;SDS011;2798;42.716;23.256;2023-03-01T08:22:52;2.53;;;1.93;;
5549;SDS011;2798;42.716;23.256;2023-03-01T08:25:17;2.47;;;2.20;;
5549;SDS011;2798;42.716;23.256;2023-03-01T08:27:42;2.87;;;2.40;;
5549;SDS011;2798;42.716;23.256;2023-03-01T08:30:08;3.03;;;2.03;;
5549;SDS011;2798;42.716;23.256;2023-03-01T08:32:37;3.07;;;2.60;;
5549;SDS011;2798;42.716;23.256;2023-03-01T08:35:02;6.57;;;3.00;;
5549;SDS011;2798;42.716;23.256;2023-03-01T08:37:28;3.60;;;2.30;;
5549;SDS011;2798;42.716;23.256;2023-03-01T08:39:55;2.43;;;2.13;;
5549;SDS011;2798;42.716;23.256;2023-03-01T08:42:21;3.30;;;2.57;;
5549;SDS011;2798;42.716;23.256;2023-03-01T08:44:46;7.30;;;2.30;;
5549;SDS011;2798;42.716;23.256;2023-03-01T08:47:11;2.27;;;2.10;;
5549;SDS011;2798;42.716;23.256;2023-03-01T08:49:36;2.93;;;2.10;;
5549;SDS011;2798;42.716;23.256;2023-03-01T08:52:02;4.33;;;2.13;;
5549;SDS011;2798;42.716;23.256;2023-03-01T08:54:27;2.43;;;2.10;;
5549;SDS011;2798;42.716;23.256;2023-03-01T08:56:52;2.07;;;1.90;;
5549;SDS011;2798;42.716;23.256;2023-03-01T08:59:18;8.10;;;2.37;;
5549;SDS011;2798;42.716;23.256;2023-03-01T09:01:43;5.13;;;2.10;;
5549;SDS011;2798;42.716;23.256;2023-03-01T09:04:09;2.53;;;2.17;;
5549;SDS011;2798;42.716;23.256;2023-03-01T09:06:34;3.53;;;2.23;;
5549;SDS011;2798;42.716;23.256;2023-03-01T09:09:00;2.17;;;2.00;;
5549;SDS011;2798;42.716;23.256;2023-03-01T09:11:25;2.80;;;2.10;;
5549;SDS011;2798;42.716;23.256;2023-03-01T09:13:51;2.60;;;2.37;;
5549;SDS011;2798;42.716;23.256;2023-03-01T09:16:17;4.63;;;2.90;;
5549;SDS011;2798;42.716;23.256;2023-03-01T09:18:43;2.37;;;2.17;;
5549;SDS011;2798;42.716;23.256;2023-03-01T09:23:34;2.50;;;2.30;;
5549;SDS011;2798;42.716;23.256;2023-03-01T09:26:01;2.20;;;1.93;;
5549;SDS011;2798;42.716;23.256;2023-03-01T09:28:27;3.17;;;2.00;;
5549;SDS011;2798;42.716;23.256;2023-03-01T09:30:52;2.27;;;1.90;;
5549;SDS011;2798;42.716;23.256;2023-03-01T09:33:17;3.30;;;2.23;;
5549;SDS011;2798;42.716;23.256;2023-03-01T09:35:43;4.50;;;2.17;;
5549;SDS011;2798;42.716;23.256;2023-03-01T09:38:12;3.33;;;2.00;;
5549;SDS011;2798;42.716;23.256;2023-03-01T09:40:41;2.70;;;2.50;;
5549;SDS011;2798;42.716;23.256;2023-03-01T09:43:08;3.07;;;2.30;;
5549;SDS011;2798;42.716;23.256;2023-03-01T09:45:39;3.50;;;2.30;;
5549;SDS011;2798;42.716;23.256;2023-03-01T09:48:06;2.03;;;1.83;;
5549;SDS011;2798;42.716;23.256;2023-03-01T09:50:37;4.20;;;2.40;;
5549;SDS011;2798;42.716;23.256;2023-03-01T09:53:10;2.23;;;2.03;;
5549;SDS011;2798;42.716;23.256;2023-03-01T10:04:00;2.50;;;2.30;;
5549;SDS011;2798;42.716;23.256;2023-03-01T10:06:27;2.93;;;2.63;;
5549;SDS011;2798;42.716;23.256;2023-03-01T10:08:54;8.17;;;2.50;;
5549;SDS011;2798;42.716;23.256;2023-03-01T10:11:21;3.00;;;2.40;;
5549;SDS011;2798;42.716;23.256;2023-03-01T10:19:01;2.57;;;2.13;;
5549;SDS011;2798;42.716;23.256;2023-03-01T10:21:28;4.80;;;2.97;;
5549;SDS011;2798;42.716;23.256;2023-03-01T10:23:57;2.97;;;2.40;;
5549;SDS011;2798;42.716;23.256;2023-03-01T10:26:38;4.53;;;2.50;;
5549;SDS011;2798;42.716;23.256;2023-03-01T10:29:11;5.13;;;2.47;;
5549;SDS011;2798;42.716;23.256;2023-03-01T10:31:47;2.67;;;2.00;;
5549;SDS011;2798;42.716;23.256;2023-03-01T10:34:17;2.73;;;1.93;;
5549;SDS011;2798;42.716;23.256;2023-03-01T10:36:43;2.60;;;1.73;;
5549;SDS011;2798;42.716;23.256;2023-03-01T10:39:21;2.70;;;2.30;;
5549;SDS011;2798;42.716;23.256;2023-03-01T10:44:34;2.30;;;2.10;;
5549;SDS011;2798;42.716;23.256;2023-03-01T10:47:00;2.20;;;2.10;;
5549;SDS011;2798;42.716;23.256;2023-03-01T10:49:26;2.17;;;1.97;;
5549;SDS011;2798;42.716;23.256;2023-03-01T10:51:52;2.30;;;2.03;;
5549;SDS011;2798;42.716;23.256;2023-03-01T10:54:22;2.10;;;1.83;;
5549;SDS011;2798;42.716;23.256;2023-03-01T10:56:53;3.80;;;2.17;;
5549;SDS011;2798;42.716;23.256;2023-03-01T10:59:32;6.73;;;2.67;;
5549;SDS011;2798;42.716;23.256;2023-03-01T11:02:02;3.10;;;2.40;;
5549;SDS011;2798;42.716;23.256;2023-03-01T11:04:28;2.40;;;2.20;;
5549;SDS011;2798;42.716;23.256;2023-03-01T11:06:57;2.60;;;2.00;;
5549;SDS011;2798;42.716;23.256;2023-03-01T11:09:23;2.10;;;1.90;;
5549;SDS011;2798;42.716;23.256;2023-03-01T11:11:56;1.90;;;1.80;;
5549;SDS011;2798;42.716;23.256;2023-03-01T11:14:22;4.80;;;2.00;;
5549;SDS011;2798;42.716;23.256;2023-03-01T11:16:49;2.00;;;1.80;;
5549;SDS011;2798;42.716;23.256;2023-03-01T11:19:22;1.63;;;1.53;;
5549;SDS011;2798;42.716;23.256;2023-03-01T11:24:33;1.67;;;1.57;;
5549;SDS011;2798;42.716;23.256;2023-03-01T11:26:59;3.17;;;2.17;;
5549;SDS011;2798;42.716;23.256;2023-03-01T11:29:29;3.23;;;2.23;;
5549;SDS011;2798;42.716;23.256;2023-03-01T11:31:57;4.37;;;3.27;;
5549;SDS011;2798;42.716;23.256;2023-03-01T11:34:28;5.73;;;4.07;;
5549;SDS011;2798;42.716;23.256;2023-03-01T11:36:58;7.17;;;4.17;;
5549;SDS011;2798;42.716;23.256;2023-03-01T11:39:32;4.63;;;3.30;;
5549;SDS011;2798;42.716;23.256;2023-03-01T11:42:02;4.30;;;3.10;;
5549;SDS011;2798;42.716;23.256;2023-03-01T11:44:30;6.63;;;2.60;;
5549;SDS011;2798;42.716;23.256;2023-03-01T11:47:07;4.00;;;2.23;;
5549;SDS011;2798;42.716;23.256;2023-03-01T11:52:13;2.07;;;1.80;;
5549;SDS011;2798;42.716;23.256;2023-03-01T11:54:48;3.83;;;2.10;;
5549;SDS011;2798;42.716;23.256;2023-03-01T12:07:50;1.03;;;1.03;;
5549;SDS011;2798;42.716;23.256;2023-03-01T12:10:26;2.10;;;1.70;;
5549;SDS011;2798;42.716;23.256;2023-03-01T12:38:25;2.90;;;2.20;;
5549;SDS011;2798;42.716;23.256;2023-03-01T12:44:05;3.07;;;1.70;;
5549;SDS011;2798;42.716;23.256;2023-03-01T12:51:32;2.70;;;1.93;;
5549;SDS011;2798;42.716;23.256;2023-03-01T12:53:59;6.43;;;1.83;;
5549;SDS011;2798;42.716;23.256;2023-03-01T12:56:27;3.10;;;1.60;;
5549;SDS011;2798;42.716;23.256;2023-03-01T13:04:12;3.43;;;1.93;;
5549;SDS011;2798;42.716;23.256;2023-03-01T13:06:49;4.47;;;2.07;;
5549;SDS011;2798;42.716;23.256;2023-03-01T13:09:30;2.40;;;2.03;;
5549;SDS011;2798;42.716;23.256;2023-03-01T13:11:56;2.40;;;2.20;;
5549;SDS011;2798;42.716;23.256;2023-03-01T13:16:53;2.40;;;2.10;;
5549;SDS011;2798;42.716;23.256;2023-03-01T13:21:44;3.53;;;2.63;;
5549;SDS011;2798;42.716;23.256;2023-03-01T13:32:20;4.47;;;2.50;;
5549;SDS011;2798;42.716;23.256;2023-03-01T13:34:53;4.67;;;2.27;;
5549;SDS011;2798;42.716;23.256;2023-03-01T13:37:20;2.50;;;2.30;;
5549;SDS011;2798;42.716;23.256;2023-03-01T13:39:45;2.30;;;2.10;;
5549;SDS011;2798;42.716;23.256;2023-03-01T13:44:56;2.50;;;2.30;;
5549;SDS011;2798;42.716;23.256;2023-03-01T13:47:21;2.43;;;2.23;;
5549;SDS011;2798;42.716;23.256;2023-03-01T13:54:52;3.23;;;2.37;;
5549;SDS011;2798;42.716;23.256;2023-03-01T13:57:20;4.00;;;2.60;;
5549;SDS011;2798;42.716;23.256;2023-03-01T13:59:47;3.20;;;2.53;;
5549;SDS011;2798;42.716;23.256;2023-03-01T14:02:12;7.13;;;2.70;;
5549;SDS011;2798;42.716;23.256;2023-03-01T14:04:38;4.50;;;2.50;;
5549;SDS011;2798;42.716;23.256;2023-03-01T14:07:12;2.50;;;2.30;;
5549;SDS011;2798;42.716;23.256;2023-03-01T14:09:38;5.60;;;2.40;;
5549;SDS011;2798;42.716;23.256;2023-03-01T14:19:59;4.50;;;2.60;;
5549;SDS011;2798;42.716;23.256;2023-03-01T14:22:30;3.10;;;2.30;;
5549;SDS011;2798;42.716;23.256;2023-03-01T14:25:00;4.93;;;2.30;;
5549;SDS011;2798;42.716;23.256;2023-03-01T14:27:28;7.33;;;2.60;;
5549;SDS011;2798;42.716;23.256;2023-03-01T14:29:59;2.70;;;2.10;;
5549;SDS011;2798;42.716;23.256;2023-03-01T14:32:25;4.90;;;2.70;;
5549;SDS011;2798;42.716;23.256;2023-03-01T14:34:52;3.77;;;2.67;;
5549;SDS011;2798;42.716;23.256;2023-03-01T14:37:21;2.57;;;2.30;;
5549;SDS011;2798;42.716;23.256;2023-03-01T14:39:47;3.10;;;2.50;;
5549;SDS011;2798;42.716;23.256;2023-03-01T14:42:13;3.67;;;2.27;;
5549;SDS011;2798;42.716;23.256;2023-03-01T14:44:40;3.40;;;2.50;;
5549;SDS011;2798;42.716;23.256;2023-03-01T14:47:06;3.33;;;2.20;;
5549;SDS011;2798;42.716;23.256;2023-03-01T14:49:31;6.43;;;2.60;;
5549;SDS011;2798;42.716;23.256;2023-03-01T14:52:04;6.67;;;3.40;;
5549;SDS011;2798;42.716;23.256;2023-03-01T14:57:05;5.23;;;2.50;;
5549;SDS011;2798;42.716;23.256;2023-03-01T14:59:32;4.07;;;2.80;;
5549;SDS011;2798;42.716;23.256;2023-03-01T15:01:58;6.80;;;3.70;;
5549;SDS011;2798;42.716;23.256;2023-03-01T15:04:24;7.80;;;2.70;;
5549;SDS011;2798;42.716;23.256;2023-03-01T15:06:51;2.50;;;2.30;;
5549;SDS011;2798;42.716;23.256;2023-03-01T15:09:16;3.33;;;2.27;;
5549;SDS011;2798;42.716;23.256;2023-03-01T15:11:42;6.33;;;2.30;;
5549;SDS011;2798;42.716;23.256;2023-03-01T15:16:52;4.03;;;2.80;;
5549;SDS011;2798;42.716;23.256;2023-03-01T15:19:17;3.73;;;2.60;;
5549;SDS011;2798;42.716;23.256;2023-03-01T15:21:43;3.03;;;2.63;;
5549;SDS011;2798;42.716;23.256;2023-03-01T15:26:44;5.63;;;2.70;;
5549;SDS011;2798;42.716;23.256;2023-03-01T15:29:15;3.40;;;2.40;;
5549;SDS011;2798;42.716;23.256;2023-03-01T15:31:42;3.63;;;2.60;;
5549;SDS011;2798;42.716;23.256;2023-03-01T15:34:19;5.60;;;3.13;;
5549;SDS011;2798;42.716;23.256;2023-03-01T15:36:45;5.03;;;3.30;;
5549;SDS011;2798;42.716;23.256;2023-03-01T15:42:02;3.40;;;2.73;;
5549;SDS011;2798;42.716;23.256;2023-03-01T15:44:29;3.93;;;2.80;;
5549;SDS011;2798;42.716;23.256;2023-03-01T15:46:55;6.10;;;3.37;;
5549;SDS011;2798;42.716;23.256;2023-03-01T15:49:30;8.03;;;3.27;;
5549;SDS011;2798;42.716;23.256;2023-03-01T15:51:58;5.77;;;3.07;;
5549;SDS011;2798;42.716;23.256;2023-03-01T15:54:24;4.93;;;3.30;;
5549;SDS011;2798;42.716;23.256;2023-03-01T15:56:50;4.77;;;3.00;;
5549;SDS011;2798;42.716;23.256;2023-03-01T15:59:15;4.27;;;3.07;;
5549;SDS011;2798;42.716;23.256;2023-03-01T16:01:41;4.23;;;3.30;;
5549;SDS011;2798;42.716;23.256;2023-03-01T16:04:07;3.50;;;3.20;;
5549;SDS011;2798;42.716;23.256;2023-03-01T16:06:33;3.07;;;2.67;;
5549;SDS011;2798;42.716;23.256;2023-03-01T16:09:00;3.47;;;3.17;;
5549;SDS011;2798;42.716;23.256;2023-03-01T16:11:27;4.87;;;3.13;;
5549;SDS011;2798;42.716;23.256;2023-03-01T16:13:52;3.20;;;2.40;;
5549;SDS011;2798;42.716;23.256;2023-03-01T16:16:17;4.30;;;2.70;;
5549;SDS011;2798;42.716;23.256;2023-03-01T16:18:43;4.77;;;2.80;;
5549;SDS011;2798;42.716;23.256;2023-03-01T16:21:11;5.73;;;2.87;;
5549;SDS011;2798;42.716;23.256;2023-03-01T16:23:36;3.13;;;2.40;;
5549;SDS011;2798;42.716;23.256;2023-03-01T16:26:02;5.53;;;2.90;;
5549;SDS011;2798;42.716;23.256;2023-03-01T16:28:27;4.87;;;3.70;;
5549;SDS011;2798;42.716;23.256;2023-03-01T16:30:52;4.47;;;2.57;;
5549;SDS011;2798;42.716;23.256;2023-03-01T16:33:18;8.90;;;3.03;;
5549;SDS011;2798;42.716;23.256;2023-03-01T16:35:43;5.93;;;3.37;;
5549;SDS011;2798;42.716;23.256;2023-03-01T16:38:09;5.47;;;3.70;;
5549;SDS011;2798;42.716;23.256;2023-03-01T16:40:34;3.97;;;3.10;;
5549;SDS011;2798;42.716;23.256;2023-03-01T16:42:59;7.07;;;3.43;;
5549;SDS011;2798;42.716;23.256;2023-03-01T16:45:35;4.90;;;3.20;;
5549;SDS011;2798;42.716;23.256;2023-03-01T16:48:01;6.50;;;3.33;;
5549;SDS011;2798;42.716;23.256;2023-03-01T16:50:26;6.53;;;4.00;;
5549;SDS011;2798;42.716;23.256;2023-03-01T16:52:51;7.27;;;4.00;;
5549;SDS011;2798;42.716;23.256;2023-03-01T16:55:17;4.70;;;3.43;;
5549;SDS011;2798;42.716;23.256;2023-03-01T16:57:42;9.73;;;3.73;;
5549;SDS011;2798;42.716;23.256;2023-03-01T17:00:09;6.33;;;3.80;;
5549;SDS011;2798;42.716;23.256;2023-03-01T17:02:35;4.80;;;4.20;;